Terminal Aerodrome Forecast
Issued by NWS Greer, SC

Home | Current Version | Previous Version | Text Only | Print | Product List | Glossary On
Versions: 1 2 3 4 5 6 7 8 9 10 11 12 13 14 15 16 17 18 19 20 21
000
FTUS42 KGSP 232211 AAC
TAFAVL
TAF AMD
KAVL 232211Z 2322/2418 01007KT 5SM SHRA BR OVC007 WS020/09035KT
     FM240400 01007KT 4SM -SHRA BR OVC007 WS020/08035KT
     FM240600 06007KT 4SM -SHRA BR OVC006
     FM240800 01007KT 5SM -SHRA BR OVC007=

USA.gov is the U.S. government's official web portal to all federal, state and local government web resources and services.